DIRECCIÓN GENERAL DE AERONÁUTICA CIVIL
DIRECCIÓN METEOROLÓGICA DE CHILE
INFORMACIÓN METAR Y TAF

FIR SANTIAGO

Estación: SCSE
METAR SCSE 281700Z 29009KT 9999 -DZ SCT012 OVC017 13/10 Q1018=

TAF SCSE 281610Z 2818/2918 28008KT 9999 SCT012 OVC025 TX14/2818Z TN10/2910Z BECMG 2901/2903 13004KT TEMPO 2906/2912 OVC016 BECMG 2914/2916 28008KT BKN025=

Estación: SCER
METAR SCER 161100Z 00000KT 7000 OVC014 12/10 Q1015=

TAF SCER NIL=

Estación: SCRD
METAR SCRD 281700Z 33015KT 0100 FG VV000 11/11 Q1018=

TAF AMD SCRD 281512Z 2816/2824 35012KT 0300 FG OVC003 TX12/2818Z TN10 /2823Z BECMG 2817/2819 35008KT 2000 BR OVC008 BECMG 2819/2821 6000 BKN015=

Estación: SCVM
METAR SCVM 281700Z 33015KT 4000 BR OVC010 12/11 Q1019=

TAF SCVM 281610Z 2818/2918 35012KT 8000 OVC012 TX14/2818Z TN10/2910Z BECMG 2819/2821 OVC016 BECMG 2903/2905 BKN020 TEMPO 2910/2914 00000KT 5000 -DZ OVC010=

Estación: SCTB
METAR SCTB 281700Z 24007KT 6000 NSC 21/09 Q1016=

TAF SCTB 281023Z 2812/2824 VRB02KT 8000 NSC TX23/2818Z TN08/2812Z TEMPO 2812/2814 4000 HZ BECMG 2816/2818 23008KT=

Estación: SCEL
METAR SCEL 281700Z 17014KT CAVOK 20/10 Q1015 NOSIG=

TAF SCEL 281610Z 2818/2918 18015KT CAVOK TX22/2818Z TN09/2910Z BECMG 2900/2902 16010KT 4000 BR SCT008 TEMPO 2904/2910 02005KT 0700 FG BKN005 BECMG 2912/2914 3000 BR BKN010 BECMG 2914/2916 18006KT 6000 BKN016=

Estación: SCSN
METAR SCSN 281600Z 33009KT 9999 OVC014 14/11 Q1018=

TAF AMD SCSN 281515Z 2816/2824 36008KT 9999 OVC012 TX15/2818Z TN12/ 2823Z BECMG 2816/2818 33012KT BKN015 BECMG 2819/2821 BKN020=

Estación: SCRG
METAR SCRG 281500Z 18017KT 8000 NSC 16/09 Q1015=

TAF AMD SCRG 281245Z 2813/2824 20004KT 7000 NSC TX20/2819Z TN13/2813Z TEMPO 2813/2815 4000 HZ BECMG 2816/2818 18012KT 8000 NSC=

Estación: SCIC
METAR SCIC 281600Z 33010KT 9999 BKN020 17/11 Q1016=

TAF AMD SCIC 281612Z 2817/2824 33010KT 9999 BKN020 TX17/2818Z TN14/ 2822Z BECMG 2820/2822 OVC016=

Estación: SCCH
METAR SCCH 281700Z 01009KT 9999 FEW025 BKN200 17/13 Q1014=

TAF SCCH 281026Z 2812/2824 20005KT 4000 BR OVC005 TX19/2818Z TN11/ 2812Z TEMPO 2812/2815 0800 FG OVC002 BECMG 2815/2817 21015KT 7000 SCT008 BECMG 2818/2820 CAVOK=

Estación: SCIE
METAR SCIE 281700Z 01019KT 9999 OVC009 14/12 Q1015=

TAF SCIE 281610Z 2818/2918 01016KT 7000 OVC005 TX13/2818Z TN10/2910Z TEMPO 2818/2821 4000 BR BKN010 BECMG 2902/2904 BKN016 TEMPO 2909/2913 02020KT 6000 -SHRA SCT012 BKN025 BECMG 2915/2917 5000 -RA OVC020=

Estación: SCGE
METAR SCGE 281700Z 34004KT 9999 FEW020 SCT070 18/10 Q1015=

TAF SCGE 281026Z 2812/2824 VRB02KT CAVOK TX20/2819Z TN10/2812Z TEMPO 2812/2815 4000 BR BKN007 BECMG 2816/2818 30008KT BECMG 2820/2822 01015KT=


Volver